Time;durP1;ratioP1;P1;durP2;ratioP2;P2;SDS_P1;SDS_P2;PMS_P1;PMS_P2;Temp;Humidity;BMP_temperature;BMP_pressure;BME280_temperature;BME280_humidity;BME280_pressure;Samples;Min_cycle;Max_cycle;Signal;HPM_P1;HPM_P2
2021/05/31 00:00:28;;;;;;;4.38;2.80;;;10.30;99.90;;;;;;5062251;28;20924;-71
2021/05/31 00:02:54;;;;;;;4.47;2.70;;;10.30;99.90;;;;;;5066183;28;20935;-72
2021/05/31 00:05:27;;;;;;;3.83;2.63;;;10.30;99.90;;;;;;5065533;28;20213;-71
2021/05/31 00:07:53;;;;;;;5.90;2.83;;;10.20;99.90;;;;;;5050541;28;20580;-71
2021/05/31 00:10:19;;;;;;;4.35;3.08;;;10.20;99.90;;;;;;5064800;28;20196;-71
2021/05/31 00:12:45;;;;;;;9.82;2.90;;;10.10;99.90;;;;;;5063746;28;20198;-72
2021/05/31 00:15:11;;;;;;;5.07;2.80;;;10.00;99.90;;;;;;5049650;28;20193;-72
2021/05/31 00:17:37;;;;;;;4.35;2.60;;;9.90;99.90;;;;;;5064865;28;20201;-72
2021/05/31 00:20:06;;;;;;;8.02;3.08;;;9.90;99.90;;;;;;5064011;28;20201;-72
2021/05/31 00:22:31;;;;;;;8.75;2.92;;;9.80;99.90;;;;;;5066967;28;20279;-72
2021/05/31 00:24:57;;;;;;;4.45;2.70;;;9.70;99.90;;;;;;5064536;28;20742;-71
2021/05/31 00:27:23;;;;;;;7.95;2.83;;;9.70;99.90;;;;;;5065151;28;20782;-72
2021/05/31 00:29:48;;;;;;;7.20;3.10;;;9.70;99.90;;;;;;5046079;28;20197;-71
2021/05/31 00:32:14;;;;;;;4.32;2.70;;;9.70;99.90;;;;;;5064265;28;20203;-71
2021/05/31 00:34:41;;;;;;;6.53;2.83;;;9.70;99.90;;;;;;5062380;28;20203;-71
2021/05/31 00:37:06;;;;;;;4.80;2.70;;;9.70;99.90;;;;;;5057185;28;21244;-71
2021/05/31 00:39:32;;;;;;;5.40;2.88;;;9.60;99.90;;;;;;5064245;28;20232;-72
2021/05/31 00:41:59;;;;;;;5.43;2.80;;;9.60;99.90;;;;;;5064964;28;20196;-72
2021/05/31 00:44:25;;;;;;;4.20;2.63;;;9.50;99.90;;;;;;5062916;28;20645;-71
2021/05/31 00:46:52;;;;;;;3.63;2.70;;;9.50;99.90;;;;;;5063661;28;20201;-71
2021/05/31 00:49:21;;;;;;;5.88;2.80;;;9.50;99.90;;;;;;5057997;28;20235;-71
2021/05/31 00:51:47;;;;;;;4.90;2.83;;;9.40;99.90;;;;;;5047685;28;20207;-71
2021/05/31 00:54:13;;;;;;;5.78;2.72;;;9.30;99.90;;;;;;5064171;28;20201;-72
2021/05/31 00:56:41;;;;;;;5.35;2.72;;;9.30;99.90;;;;;;5050211;28;20197;-72
2021/05/31 00:59:08;;;;;;;4.07;2.97;;;9.20;99.90;;;;;;5062447;28;20667;-71
2021/05/31 01:01:34;;;;;;;8.15;2.70;;;9.10;99.90;;;;;;5067088;28;20204;-71
2021/05/31 01:04:01;;;;;;;3.85;2.72;;;9.10;99.90;;;;;;5087049;22;20236;-74
2021/05/31 01:06:32;;;;;;;4.63;3.00;;;9.10;99.90;;;;;;5080487;28;20218;-77
2021/05/31 01:09:09;;;;;;;8.05;2.85;;;9.10;99.90;;;;;;5080200;28;21323;-75
2021/05/31 01:11:53;;;;;;;4.40;2.67;;;9.10;99.90;;;;;;5082102;28;20665;-75
2021/05/31 01:14:38;;;;;;;6.20;3.03;;;9.10;99.90;;;;;;5093511;28;20224;-77
2021/05/31 01:17:30;;;;;;;7.38;2.90;;;9.00;99.90;;;;;;5078528;28;20623;-76
2021/05/31 01:20:14;;;;;;;4.03;2.58;;;9.00;99.90;;;;;;5077656;28;20235;-75
2021/05/31 01:22:44;;;;;;;4.22;2.90;;;9.00;99.90;;;;;;5076395;28;20200;-74
2021/05/31 01:25:29;;;;;;;5.00;2.70;;;9.00;99.90;;;;;;5082276;28;20211;-75
2021/05/31 01:28:11;;;;;;;5.68;2.83;;;8.90;99.90;;;;;;5076893;28;20668;-76
2021/05/31 01:30:42;;;;;;;6.35;2.85;;;8.90;99.90;;;;;;5076678;28;20193;-75
2021/05/31 01:33:13;;;;;;;5.63;3.05;;;8.90;99.90;;;;;;5080291;28;20696;-75
2021/05/31 01:35:41;;;;;;;4.82;3.03;;;8.80;99.90;;;;;;5078320;28;20268;-76
2021/05/31 01:38:07;;;;;;;9.40;2.90;;;8.80;99.90;;;;;;5080261;28;20203;-76
2021/05/31 01:40:33;;;;;;;6.45;3.10;;;8.80;99.90;;;;;;5079163;28;20211;-76
2021/05/31 01:43:01;;;;;;;7.05;3.40;;;8.90;99.90;;;;;;5078348;28;20668;-76
2021/05/31 01:45:27;;;;;;;7.25;2.90;;;8.90;99.90;;;;;;5074788;28;20231;-75
2021/05/31 01:47:53;;;;;;;4.03;3.08;;;8.90;99.90;;;;;;5078769;28;20196;-76
2021/05/31 01:50:19;;;;;;;3.83;2.70;;;8.90;99.90;;;;;;5077434;28;20199;-75
2021/05/31 01:52:46;;;;;;;5.10;2.88;;;8.90;99.90;;;;;;5078381;28;20200;-76
2021/05/31 01:55:15;;;;;;;4.65;2.90;;;8.90;99.90;;;;;;5078292;28;20756;-76
2021/05/31 01:57:43;;;;;;;6.22;2.78;;;8.90;99.90;;;;;;5074535;28;20197;-78
2021/05/31 02:00:10;;;;;;;5.55;2.88;;;8.90;99.90;;;;;;5078112;28;20221;-74
2021/05/31 02:02:36;;;;;;;6.45;2.92;;;8.90;99.90;;;;;;5077716;28;20799;-76
2021/05/31 02:05:05;;;;;;;5.38;3.03;;;8.90;99.90;;;;;;5080276;28;20204;-75
2021/05/31 02:07:31;;;;;;;7.35;3.17;;;8.80;99.90;;;;;;5096341;28;20212;-75
2021/05/31 02:09:57;;;;;;;5.18;2.88;;;8.80;99.90;;;;;;5078733;28;20253;-75
2021/05/31 02:12:26;;;;;;;6.88;3.10;;;8.80;99.90;;;;;;5081441;28;20685;-74
2021/05/31 02:15:01;;;;;;;5.45;2.78;;;8.70;99.90;;;;;;5079388;28;20188;-75
2021/05/31 02:17:52;;;;;;;6.25;2.90;;;8.70;99.90;;;;;;5078647;28;20252;-75
2021/05/31 02:20:19;;;;;;;4.00;2.90;;;8.70;99.90;;;;;;5076295;28;20245;-76
2021/05/31 02:22:51;;;;;;;5.30;2.90;;;8.70;99.90;;;;;;5081083;28;20197;-75
2021/05/31 02:25:17;;;;;;;6.40;3.22;;;8.70;99.90;;;;;;5079886;28;20203;-76
2021/05/31 02:27:44;;;;;;;6.93;3.25;;;8.70;99.90;;;;;;5081939;28;20220;-76
2021/05/31 02:30:11;;;;;;;5.50;3.08;;;8.60;99.90;;;;;;5078386;28;20279;-77
2021/05/31 02:32:37;;;;;;;10.65;3.50;;;8.60;99.90;;;;;;5084692;28;20730;-75
2021/05/31 02:35:10;;;;;;;5.65;3.17;;;8.60;99.90;;;;;;5081774;28;20212;-75
2021/05/31 02:37:37;;;;;;;5.47;3.08;;;8.70;99.90;;;;;;5078494;28;20199;-76
2021/05/31 02:40:04;;;;;;;6.05;3.20;;;8.60;99.90;;;;;;5082216;28;20188;-75
2021/05/31 02:42:37;;;;;;;5.43;3.38;;;8.60;99.90;;;;;;5092516;28;20978;-75
2021/05/31 02:45:03;;;;;;;4.43;3.28;;;8.60;99.90;;;;;;5077461;28;20221;-77
2021/05/31 02:47:29;;;;;;;5.50;3.25;;;8.60;99.90;;;;;;5079881;28;21185;-75
2021/05/31 02:49:55;;;;;;;4.68;2.95;;;8.60;99.90;;;;;;5077003;28;20295;-78
2021/05/31 02:52:20;;;;;;;5.20;3.28;;;8.70;99.90;;;;;;5080478;28;20195;-77
2021/05/31 02:54:46;;;;;;;7.57;3.17;;;8.70;99.90;;;;;;5078645;28;20596;-77
2021/05/31 02:57:11;;;;;;;5.97;3.03;;;8.70;99.90;;;;;;5077035;28;20280;-75
2021/05/31 02:59:37;;;;;;;5.63;3.25;;;8.70;99.90;;;;;;5077089;28;20246;-74
2021/05/31 03:02:03;;;;;;;7.05;3.20;;;8.80;99.90;;;;;;5079437;28;20191;-75
2021/05/31 03:04:29;;;;;;;5.10;3.50;;;8.80;99.90;;;;;;5076355;28;20196;-74
2021/05/31 03:06:54;;;;;;;10.48;3.50;;;8.90;99.90;;;;;;5081199;28;20971;-75
2021/05/31 03:09:20;;;;;;;7.32;3.47;;;8.90;99.90;;;;;;5079381;28;20288;-74
2021/05/31 03:11:46;;;;;;;6.07;3.42;;;9.00;99.90;;;;;;5078761;28;20203;-73
2021/05/31 03:14:11;;;;;;;5.93;3.72;;;9.00;99.90;;;;;;5093401;28;20214;-75
2021/05/31 03:16:37;;;;;;;7.03;3.38;;;9.10;99.90;;;;;;5080889;28;20196;-74
2021/05/31 03:19:03;;;;;;;7.38;3.13;;;9.20;99.90;;;;;;5078583;28;20185;-74
2021/05/31 03:21:28;;;;;;;5.88;3.55;;;9.20;99.90;;;;;;5082706;28;20227;-74
2021/05/31 03:23:54;;;;;;;7.63;3.83;;;9.10;99.90;;;;;;5081662;28;20738;-74
2021/05/31 03:26:20;;;;;;;6.03;3.53;;;9.10;99.90;;;;;;5079456;28;20200;-74
2021/05/31 03:28:46;;;;;;;6.88;3.80;;;9.10;99.90;;;;;;5083300;28;20194;-74
2021/05/31 03:31:11;;;;;;;5.22;3.42;;;9.10;99.90;;;;;;5079313;28;20196;-74
2021/05/31 03:33:37;;;;;;;10.32;3.58;;;9.10;99.90;;;;;;5074498;28;20200;-73
2021/05/31 03:36:04;;;;;;;7.05;3.60;;;9.10;99.90;;;;;;5079330;28;20185;-76
2021/05/31 03:38:30;;;;;;;5.13;3.70;;;9.10;99.90;;;;;;5076785;28;20245;-74
2021/05/31 03:40:55;;;;;;;10.23;3.90;;;9.10;99.90;;;;;;5069489;28;20718;-76
2021/05/31 03:43:21;;;;;;;6.47;3.85;;;9.20;99.90;;;;;;5075349;28;20686;-76
2021/05/31 03:45:47;;;;;;;7.93;4.25;;;9.20;99.90;;;;;;5077651;28;20256;-75
2021/05/31 03:48:13;;;;;;;6.55;3.85;;;9.20;99.90;;;;;;5077993;28;20204;-76
2021/05/31 03:50:39;;;;;;;6.15;3.95;;;9.20;99.90;;;;;;5077397;28;20269;-75
2021/05/31 03:53:06;;;;;;;6.72;3.85;;;9.20;99.90;;;;;;5075482;28;20899;-75
2021/05/31 03:55:31;;;;;;;7.15;3.78;;;9.20;99.90;;;;;;5071127;28;20196;-76
2021/05/31 03:57:57;;;;;;;10.70;3.88;;;9.20;99.90;;;;;;5072428;28;20265;-76
2021/05/31 04:00:24;;;;;;;9.77;3.90;;;9.30;99.90;;;;;;5075778;28;20228;-75
2021/05/31 04:02:50;;;;;;;5.70;3.88;;;9.40;99.90;;;;;;5075920;28;20235;-76
2021/05/31 04:05:16;;;;;;;8.85;3.95;;;9.50;99.90;;;;;;5078797;28;20481;-78
2021/05/31 04:13:14;;;;;;;6.55;3.40;;;9.60;99.90;;;;;;5077611;28;20346;-75
2021/05/31 04:15:40;;;;;;;5.93;3.40;;;9.70;99.90;;;;;;5078910;28;20978;-76
2021/05/31 04:18:06;;;;;;;7.78;3.92;;;9.70;99.90;;;;;;5074456;28;20193;-74
2021/05/31 04:20:31;;;;;;;4.68;3.40;;;9.80;99.90;;;;;;5074210;28;20697;-74
2021/05/31 04:22:57;;;;;;;6.68;3.83;;;9.90;99.90;;;;;;5083484;28;20192;-75
2021/05/31 04:25:23;;;;;;;10.05;3.90;;;10.00;99.90;;;;;;5082357;28;20204;-75
2021/05/31 04:27:49;;;;;;;7.13;3.60;;;10.20;99.90;;;;;;5076682;28;20204;-76
2021/05/31 04:30:16;;;;;;;8.18;3.92;;;10.30;99.90;;;;;;5083229;28;20199;-75
2021/05/31 04:32:42;;;;;;;15.27;3.72;;;10.50;99.90;;;;;;5080450;28;20204;-75
2021/05/31 04:35:08;;;;;;;7.03;4.07;;;10.70;99.90;;;;;;5095090;28;20238;-74
2021/05/31 04:37:34;;;;;;;6.22;3.58;;;10.80;99.90;;;;;;5082238;28;20725;-74
2021/05/31 04:40:02;;;;;;;8.95;4.00;;;11.00;99.90;;;;;;5077865;28;20614;-75
2021/05/31 04:42:28;;;;;;;8.55;3.58;;;11.10;99.90;;;;;;5081636;28;20198;-76
2021/05/31 04:44:53;;;;;;;8.25;3.67;;;11.30;99.90;;;;;;5078898;28;20196;-74
2021/05/31 04:47:19;;;;;;;10.68;3.85;;;11.40;99.90;;;;;;5080394;28;20211;-74
2021/05/31 04:49:45;;;;;;;10.57;3.63;;;11.90;99.90;;;;;;5078270;28;20192;-74
2021/05/31 04:52:10;;;;;;;10.77;3.40;;;12.40;99.90;;;;;;5079357;28;20590;-74
2021/05/31 04:54:36;;;;;;;6.72;3.58;;;12.60;99.90;;;;;;5080873;28;20200;-74
2021/05/31 04:57:03;;;;;;;10.18;3.70;;;13.30;99.90;;;;;;5081119;28;20294;-73
2021/05/31 04:59:29;;;;;;;7.93;3.35;;;14.10;99.90;;;;;;5082104;28;20569;-74
2021/05/31 05:01:54;;;;;;;8.20;3.63;;;14.80;99.90;;;;;;5078384;28;20204;-74
2021/05/31 05:04:20;;;;;;;12.43;3.75;;;15.40;99.90;;;;;;5083353;28;20208;-74
2021/05/31 05:06:46;;;;;;;7.80;3.30;;;15.80;99.90;;;;;;5084306;28;20215;-74
2021/05/31 05:09:12;;;;;;;30.73;3.88;;;16.20;99.90;;;;;;5079730;28;20200;-74
2021/05/31 05:11:37;;;;;;;5.75;3.30;;;16.60;99.90;;;;;;5079763;28;20249;-74
2021/05/31 05:14:03;;;;;;;4.95;2.70;;;16.90;99.90;;;;;;5077520;28;20192;-74
2021/05/31 05:16:29;;;;;;;12.52;3.13;;;17.10;99.90;;;;;;5080263;28;20189;-74
2021/05/31 05:18:55;;;;;;;4.47;3.10;;;17.30;99.90;;;;;;5078187;28;20566;-73
2021/05/31 05:21:21;;;;;;;5.20;3.28;;;17.70;99.90;;;;;;5078419;28;20634;-74
2021/05/31 05:23:48;;;;;;;4.00;2.92;;;17.80;99.90;;;;;;5082480;28;20275;-74
2021/05/31 05:26:15;;;;;;;5.45;2.70;;;17.80;99.90;;;;;;5080853;28;20188;-74
2021/05/31 05:28:41;;;;;;;4.00;2.90;;;17.90;99.90;;;;;;5081687;28;20614;-74
2021/05/31 05:31:09;;;;;;;4.93;2.95;;;17.90;99.90;;;;;;5077473;28;20302;-74
2021/05/31 05:33:36;;;;;;;4.97;2.67;;;17.80;99.90;;;;;;5079877;28;20338;-74
2021/05/31 05:36:17;;;;;;;5.32;3.03;;;17.90;99.90;;;;;;5079272;28;20192;-74
2021/05/31 05:49:11;;;;;;;5.85;3.42;;;18.10;99.90;;;;;;5082052;28;20207;-74
2021/05/31 05:51:37;;;;;;;8.40;3.03;;;18.30;99.90;;;;;;5079615;28;20196;-75
2021/05/31 05:54:04;;;;;;;8.00;3.08;;;18.30;99.90;;;;;;5082987;28;20218;-75
2021/05/31 05:56:30;;;;;;;5.35;3.30;;;18.40;99.90;;;;;;5082517;28;20200;-74
2021/05/31 05:58:56;;;;;;;5.72;3.60;;;18.40;99.90;;;;;;5082406;28;20727;-74
2021/05/31 06:01:23;;;;;;;9.65;3.60;;;18.30;99.90;;;;;;5075554;28;20250;-74
2021/05/31 06:03:51;;;;;;;5.85;3.33;;;18.30;99.90;;;;;;5078244;28;20227;-74
2021/05/31 06:06:18;;;;;;;5.85;3.53;;;18.50;99.90;;;;;;5076612;28;20280;-74
2021/05/31 06:08:44;;;;;;;10.30;3.85;;;18.50;99.90;;;;;;5077029;28;20203;-75
2021/05/31 06:11:10;;;;;;;4.68;3.15;;;18.40;99.90;;;;;;5079049;28;20653;-74
2021/05/31 06:13:35;;;;;;;6.50;3.10;;;18.70;99.90;;;;;;5072662;28;20254;-76
2021/05/31 06:16:02;;;;;;;7.47;3.28;;;19.00;99.90;;;;;;5078935;28;20207;-74
2021/05/31 06:18:29;;;;;;;8.25;3.42;;;19.40;99.90;;;;;;5072924;28;20192;-74
2021/05/31 06:20:55;;;;;;;5.22;2.95;;;19.60;99.90;;;;;;5078902;28;20281;-74
2021/05/31 06:23:21;;;;;;;6.45;3.28;;;19.80;99.90;;;;;;5077696;28;20204;-74
2021/05/31 06:25:47;;;;;;;8.25;3.35;;;19.70;99.90;;;;;;5076427;28;20211;-74
2021/05/31 06:28:13;;;;;;;5.00;2.97;;;19.90;99.90;;;;;;5076352;28;20203;-74
2021/05/31 06:30:39;;;;;;;3.92;2.63;;;20.00;99.90;;;;;;5077550;28;20577;-74
2021/05/31 06:33:05;;;;;;;5.82;3.22;;;20.30;99.90;;;;;;5078366;28;20176;-74
2021/05/31 06:35:30;;;;;;;6.20;3.50;;;20.40;99.90;;;;;;5077880;28;20200;-73
2021/05/31 06:37:56;;;;;;;5.30;3.08;;;20.40;99.90;;;;;;5079213;28;20226;-74
2021/05/31 06:40:23;;;;;;;4.13;2.80;;;20.50;99.90;;;;;;5075671;28;20211;-76
2021/05/31 06:42:49;;;;;;;8.43;2.80;;;20.70;96.00;;;;;;5076863;28;20188;-75
2021/05/31 06:45:21;;;;;;;4.38;2.50;;;20.40;95.50;;;;;;5074364;28;20247;-74
2021/05/31 06:47:47;;;;;;;10.07;2.67;;;20.50;92.60;;;;;;5078816;28;20211;-75
2021/05/31 06:50:13;;;;;;;5.47;2.60;;;20.10;91.90;;;;;;5075457;28;20238;-76
2021/05/31 06:52:39;;;;;;;3.92;2.50;;;19.90;91.00;;;;;;5075795;28;20230;-75
2021/05/31 06:55:07;;;;;;;5.25;2.60;;;20.00;91.00;;;;;;5076144;28;20200;-75
2021/05/31 06:57:33;;;;;;;5.20;2.50;;;20.10;89.10;;;;;;5074718;28;20589;-75
2021/05/31 06:59:59;;;;;;;3.85;2.50;;;20.30;92.70;;;;;;5078479;28;20242;-76
2021/05/31 07:02:25;;;;;;;6.93;2.70;;;20.80;90.20;;;;;;5078462;28;20232;-76
2021/05/31 07:04:53;;;;;;;6.45;2.70;;;21.10;89.30;;;;;;5080625;28;20195;-76
2021/05/31 07:07:20;;;;;;;5.63;2.60;;;21.30;89.30;;;;;;5077763;28;20212;-76
2021/05/31 07:09:47;;;;;;;7.43;2.47;;;21.60;86.00;;;;;;5077828;28;20282;-75
2021/05/31 07:12:15;;;;;;;3.88;2.55;;;21.60;87.50;;;;;;5076007;28;20199;-72
2021/05/31 07:14:44;;;;;;;8.07;2.70;;;21.60;87.30;;;;;;5064285;28;20496;-73
2021/05/31 07:17:11;;;;;;;4.10;2.55;;;21.50;88.40;;;;;;5077349;28;20191;-73
2021/05/31 07:19:40;;;;;;;4.90;2.67;;;21.70;89.90;;;;;;5074853;28;20223;-73
2021/05/31 07:22:06;;;;;;;7.47;2.78;;;21.80;86.80;;;;;;5078455;28;20253;-73
2021/05/31 07:24:32;;;;;;;5.13;2.53;;;21.80;90.10;;;;;;5076985;28;20199;-73
2021/05/31 07:26:58;;;;;;;4.82;2.70;;;22.00;89.10;;;;;;5075420;28;20219;-73
2021/05/31 07:29:23;;;;;;;5.00;2.65;;;22.10;85.60;;;;;;5072832;28;20424;-74
2021/05/31 07:31:49;;;;;;;6.00;2.67;;;22.20;86.80;;;;;;5079834;28;20204;-73
2021/05/31 07:34:15;;;;;;;4.72;2.50;;;22.30;83.20;;;;;;5080491;28;20195;-74
2021/05/31 07:36:40;;;;;;;5.35;2.83;;;22.30;82.70;;;;;;5076642;28;20188;-73
2021/05/31 07:39:07;;;;;;;3.80;2.63;;;22.10;82.00;;;;;;5077347;28;20280;-74
2021/05/31 07:41:33;;;;;;;4.18;2.80;;;22.00;86.50;;;;;;5082770;28;20199;-73
2021/05/31 07:43:59;;;;;;;5.85;2.92;;;21.90;82.80;;;;;;5082085;28;20188;-72
2021/05/31 07:46:24;;;;;;;4.75;2.67;;;21.80;84.80;;;;;;5085515;28;20196;-73
2021/05/31 07:48:51;;;;;;;3.80;2.50;;;22.00;86.30;;;;;;5085062;28;20307;-74
2021/05/31 07:51:19;;;;;;;7.32;2.95;;;22.40;84.30;;;;;;5085380;28;20218;-73
2021/05/31 07:53:49;;;;;;;4.03;2.75;;;22.80;82.70;;;;;;5084311;28;20291;-73
2021/05/31 07:56:15;;;;;;;3.97;2.70;;;22.80;80.50;;;;;;5085983;28;20192;-74
2021/05/31 07:58:42;;;;;;;4.97;2.75;;;22.60;79.20;;;;;;5084298;28;20544;-73
2021/05/31 08:01:08;;;;;;;4.38;2.70;;;22.60;82.60;;;;;;5084662;28;20584;-73
2021/05/31 08:03:34;;;;;;;5.32;2.92;;;23.00;81.90;;;;;;5083810;28;20228;-73
2021/05/31 08:06:00;;;;;;;5.20;2.65;;;23.30;79.00;;;;;;5081075;28;20196;-74
2021/05/31 08:08:27;;;;;;;4.55;3.30;;;23.40;84.90;;;;;;5084154;28;21338;-73
2021/05/31 08:10:53;;;;;;;4.05;2.75;;;23.80;76.60;;;;;;5082952;28;20739;-73
2021/05/31 08:13:19;;;;;;;6.85;2.88;;;23.90;79.00;;;;;;5078634;28;20200;-73
2021/05/31 08:15:45;;;;;;;4.93;2.60;;;24.00;77.10;;;;;;5079438;28;20192;-73
2021/05/31 08:18:11;;;;;;;3.25;2.60;;;24.50;78.40;;;;;;5080720;28;20203;-73
2021/05/31 08:20:38;;;;;;;7.72;3.17;;;24.50;73.80;;;;;;5091218;28;20497;-73
2021/05/31 08:23:05;;;;;;;5.93;2.78;;;24.30;77.50;;;;;;5085666;28;20204;-73
2021/05/31 08:25:30;;;;;;;5.65;3.17;;;24.40;78.50;;;;;;5086271;28;20196;-74
2021/05/31 08:27:56;;;;;;;4.72;2.90;;;24.50;71.60;;;;;;5084221;28;20652;-73
2021/05/31 08:30:22;;;;;;;3.35;2.63;;;24.50;75.70;;;;;;5085398;28;20192;-73
2021/05/31 08:32:48;;;;;;;4.65;3.10;;;24.40;71.40;;;;;;5087638;28;20287;-73
2021/05/31 08:35:14;;;;;;;4.90;3.13;;;24.40;77.50;;;;;;5081224;28;20196;-74
2021/05/31 08:37:41;;;;;;;4.90;3.10;;;24.50;72.90;;;;;;5081711;28;20240;-74
2021/05/31 08:40:08;;;;;;;4.13;2.70;;;24.50;75.70;;;;;;5084744;28;20581;-74
2021/05/31 08:42:38;;;;;;;3.75;2.90;;;24.90;76.20;;;;;;5080543;28;20560;-73
2021/05/31 08:45:09;;;;;;;6.00;2.90;;;25.30;72.20;;;;;;5083833;28;20540;-75
2021/05/31 08:47:44;;;;;;;3.80;2.70;;;25.20;72.10;;;;;;5077563;28;20208;-75
2021/05/31 08:50:10;;;;;;;4.60;2.85;;;25.40;73.40;;;;;;5079903;28;20195;-75
2021/05/31 08:52:37;;;;;;;6.22;3.42;;;25.20;69.70;;;;;;5083324;28;20693;-77
2021/05/31 08:55:08;;;;;;;4.88;2.70;;;25.20;73.10;;;;;;5084228;28;20271;-74
2021/05/31 08:57:34;;;;;;;3.85;3.00;;;25.50;73.70;;;;;;5080929;28;20200;-74
2021/05/31 08:59:59;;;;;;;7.85;3.33;;;25.70;73.80;;;;;;5084860;28;20704;-74
2021/05/31 09:02:31;;;;;;;4.15;3.00;;;25.50;70.70;;;;;;5079459;28;20292;-73
2021/05/31 09:04:57;;;;;;;4.38;3.00;;;25.10;70.40;;;;;;5083350;28;20630;-73
2021/05/31 09:07:23;;;;;;;4.47;2.83;;;24.90;72.00;;;;;;5091387;28;20287;-73
2021/05/31 09:09:51;;;;;;;6.13;3.17;;;24.90;74.20;;;;;;5081616;28;20223;-73
2021/05/31 09:12:22;;;;;;;5.00;3.00;;;25.10;73.60;;;;;;5082539;28;20969;-71
2021/05/31 09:14:59;;;;;;;6.32;3.03;;;25.30;69.50;;;;;;5081470;28;20529;-72
2021/05/31 09:17:33;;;;;;;6.72;3.05;;;24.90;73.20;;;;;;5081579;28;20195;-73
2021/05/31 09:20:00;;;;;;;4.00;2.60;;;25.10;71.50;;;;;;5078844;28;20202;-73
2021/05/31 09:22:29;;;;;;;6.82;3.15;;;25.20;73.60;;;;;;5077391;28;20208;-71
2021/05/31 09:25:00;;;;;;;6.60;3.33;;;25.30;71.40;;;;;;5079051;28;20220;-73
2021/05/31 09:27:27;;;;;;;4.57;2.80;;;25.30;70.20;;;;;;5080088;28;20208;-75
2021/05/31 09:30:07;;;;;;;4.88;3.10;;;25.30;73.50;;;;;;5079330;28;20189;-72
2021/05/31 09:32:33;;;;;;;4.43;3.10;;;25.50;72.20;;;;;;5082444;28;20199;-72
2021/05/31 09:35:09;;;;;;;4.00;3.20;;;25.30;71.80;;;;;;5080630;28;20523;-73
2021/05/31 09:37:50;;;;;;;4.75;3.10;;;25.10;73.30;;;;;;5083185;28;20693;-73
2021/05/31 09:40:28;;;;;;;5.40;3.30;;;24.80;73.20;;;;;;5076045;28;20197;-73
2021/05/31 09:42:56;;;;;;;4.60;3.10;;;24.40;74.10;;;;;;5078803;28;20673;-73
2021/05/31 09:45:22;;;;;;;9.85;3.70;;;24.10;72.50;;;;;;5078278;28;20192;-73
2021/05/31 09:47:49;;;;;;;5.78;3.53;;;23.90;74.40;;;;;;5079181;28;20564;-73
2021/05/31 09:50:23;;;;;;;4.00;2.88;;;24.00;76.80;;;;;;5077080;28;20222;-74
2021/05/31 09:53:07;;;;;;;6.60;3.47;;;24.30;75.70;;;;;;5081078;28;20268;-74
2021/05/31 09:55:35;;;;;;;4.90;3.10;;;24.70;75.50;;;;;;5081432;28;20196;-72
2021/05/31 09:58:05;;;;;;;8.27;3.13;;;25.10;75.20;;;;;;5083897;28;20716;-73
2021/05/31 10:00:32;;;;;;;4.80;2.97;;;25.20;76.40;;;;;;5080715;28;20595;-72
2021/05/31 10:03:14;;;;;;;4.88;3.00;;;25.30;73.80;;;;;;5083258;28;20261;-72
2021/05/31 10:05:48;;;;;;;3.95;3.30;;;25.50;71.60;;;;;;5078280;28;20241;-72
2021/05/31 10:10:56;;;;;;;4.45;3.30;;;25.40;73.30;;;;;;5078067;28;20282;-72
2021/05/31 10:13:25;;;;;;;4.45;3.15;;;25.40;72.80;;;;;;5077547;28;20196;-72
2021/05/31 10:15:52;;;;;;;7.68;3.45;;;25.60;73.40;;;;;;5075391;28;20195;-73
2021/05/31 10:18:19;;;;;;;5.35;3.10;;;26.00;72.10;;;;;;5080486;28;20215;-72
2021/05/31 10:20:46;;;;;;;7.45;3.35;;;26.60;71.30;;;;;;5078929;28;20572;-73
2021/05/31 10:23:13;;;;;;;5.85;3.60;;;26.90;71.10;;;;;;5077252;28;20619;-72
2021/05/31 10:25:45;;;;;;;6.68;3.22;;;26.60;68.00;;;;;;5080270;28;20729;-73
2021/05/31 10:28:13;;;;;;;4.72;3.30;;;26.50;71.40;;;;;;5092817;28;20211;-72
2021/05/31 10:30:50;;;;;;;4.30;3.35;;;26.30;70.50;;;;;;5078711;28;20241;-73
2021/05/31 10:33:20;;;;;;;5.82;3.30;;;26.10;69.80;;;;;;5077944;28;20184;-72
2021/05/31 10:35:46;;;;;;;4.40;3.13;;;26.20;71.20;;;;;;5072221;28;20294;-73
2021/05/31 10:38:15;;;;;;;5.03;3.05;;;26.40;71.40;;;;;;5076116;28;20840;-72
2021/05/31 10:40:44;;;;;;;5.72;3.42;;;26.40;70.00;;;;;;5082021;28;20675;-72
2021/05/31 10:43:12;;;;;;;6.22;3.63;;;26.30;68.80;;;;;;5077846;28;20191;-73
2021/05/31 10:45:39;;;;;;;7.65;3.65;;;26.40;70.00;;;;;;5075560;28;20287;-72
2021/05/31 10:48:11;;;;;;;6.60;3.50;;;26.50;68.50;;;;;;5079220;28;20212;-72
2021/05/31 10:50:46;;;;;;;7.22;3.38;;;26.20;72.50;;;;;;5078181;28;20608;-73
2021/05/31 10:53:17;;;;;;;5.88;3.70;;;26.50;71.90;;;;;;5082295;28;20207;-73
2021/05/31 10:56:18;;;;;;;5.35;3.50;;;26.70;71.00;;;;;;5087969;28;20192;-72
2021/05/31 10:58:52;;;;;;;5.88;3.80;;;25.80;71.20;;;;;;5046154;28;20257;-74
2021/05/31 11:01:20;;;;;;;4.10;3.20;;;25.60;72.60;;;;;;5074740;28;20220;-73
2021/05/31 11:03:52;;;;;;;6.18;3.65;;;25.80;73.20;;;;;;5059494;28;20227;-74
2021/05/31 11:06:26;;;;;;;8.80;3.78;;;26.20;73.70;;;;;;5044635;28;20198;-73
2021/05/31 11:08:57;;;;;;;7.68;4.07;;;26.20;72.10;;;;;;5059740;28;20200;-73
2021/05/31 11:11:39;;;;;;;6.20;3.58;;;26.70;70.50;;;;;;5041086;28;20280;-73
2021/05/31 11:14:06;;;;;;;5.47;3.47;;;27.30;70.30;;;;;;5056955;28;20196;-73
2021/05/31 11:16:50;;;;;;;5.30;3.47;;;27.60;69.00;;;;;;5040485;28;20196;-73
2021/05/31 11:19:16;;;;;;;4.15;3.47;;;27.30;68.70;;;;;;5060644;28;20737;-72
2021/05/31 11:21:44;;;;;;;7.40;3.72;;;26.80;69.80;;;;;;5063777;28;20280;-73
2021/05/31 11:24:20;;;;;;;5.13;3.88;;;26.10;69.60;;;;;;5062320;28;21660;-74
2021/05/31 11:26:48;;;;;;;5.32;3.67;;;26.20;72.40;;;;;;5045484;28;20235;-73
2021/05/31 11:29:14;;;;;;;6.63;3.42;;;26.50;69.80;;;;;;5061638;28;20212;-73
2021/05/31 11:31:42;;;;;;;9.63;3.40;;;26.90;72.20;;;;;;5059480;28;20206;-73
2021/05/31 11:34:08;;;;;;;6.72;3.47;;;27.30;68.40;;;;;;5046264;28;20200;-73
2021/05/31 11:36:37;;;;;;;12.35;3.55;;;27.80;69.30;;;;;;5061768;28;20193;-73
2021/05/31 11:39:14;;;;;;;6.35;3.25;;;28.20;68.50;;;;;;5062695;28;20192;-73
2021/05/31 11:41:43;;;;;;;7.53;3.88;;;28.50;67.30;;;;;;5060335;28;20208;-73
2021/05/31 11:44:13;;;;;;;7.28;3.85;;;28.90;68.20;;;;;;5054063;28;20196;-73
2021/05/31 11:47:00;;;;;;;5.18;3.45;;;28.70;65.80;;;;;;5053545;28;20719;-72
2021/05/31 11:49:28;;;;;;;4.32;3.05;;;28.40;66.30;;;;;;5052442;28;20612;-73
2021/05/31 11:51:57;;;;;;;12.30;3.60;;;28.40;66.50;;;;;;5060362;28;20279;-73
2021/05/31 11:54:23;;;;;;;7.80;3.42;;;28.30;66.80;;;;;;5040458;28;20275;-71
2021/05/31 11:56:49;;;;;;;5.75;3.63;;;28.60;69.50;;;;;;5057458;28;20192;-72
2021/05/31 11:59:16;;;;;;;5.85;3.38;;;29.10;69.00;;;;;;5057995;28;20246;-74
2021/05/31 12:01:52;;;;;;;8.30;3.88;;;29.50;65.00;;;;;;5057966;28;20200;-74
2021/05/31 12:04:18;;;;;;;4.68;3.58;;;29.20;64.80;;;;;;5044136;28;20235;-73
2021/05/31 12:06:54;;;;;;;5.13;3.58;;;29.70;64.70;;;;;;5044212;28;20678;-73
2021/05/31 12:09:20;;;;;;;5.72;3.83;;;29.80;64.00;;;;;;5061793;28;20657;-73
2021/05/31 12:11:46;;;;;;;5.82;3.67;;;29.50;63.80;;;;;;5061850;28;20269;-72
2021/05/31 12:14:11;;;;;;;6.88;3.67;;;29.40;64.30;;;;;;5060041;28;20250;-73
2021/05/31 12:16:37;;;;;;;5.13;3.70;;;29.40;64.60;;;;;;5062274;28;20266;-73
2021/05/31 12:19:14;;;;;;;5.05;3.55;;;28.50;63.50;;;;;;5060721;28;20268;-73
2021/05/31 12:21:41;;;;;;;5.72;3.80;;;28.60;68.10;;;;;;5062936;28;20192;-73
2021/05/31 12:24:08;;;;;;;9.40;4.18;;;28.60;63.30;;;;;;5062408;28;20967;-73
2021/05/31 12:26:36;;;;;;;6.03;3.40;;;28.40;65.00;;;;;;5048115;28;20204;-72
2021/05/31 12:29:04;;;;;;;4.88;3.60;;;28.00;67.20;;;;;;5065033;28;20208;-73
2021/05/31 12:31:33;;;;;;;4.78;3.55;;;27.80;69.40;;;;;;5066194;28;20188;-73
2021/05/31 12:33:59;;;;;;;6.18;3.80;;;27.80;65.70;;;;;;5060872;28;20203;-73
2021/05/31 12:36:28;;;;;;;12.82;4.43;;;27.70;66.00;;;;;;5066256;28;20211;-72
2021/05/31 12:38:54;;;;;;;6.47;4.40;;;27.30;71.30;;;;;;5057753;28;20193;-73
2021/05/31 12:41:20;;;;;;;9.32;4.55;;;27.30;68.80;;;;;;5062105;28;20854;-74
2021/05/31 12:43:46;;;;;;;8.90;4.20;;;27.00;69.80;;;;;;5066467;28;20197;-74
2021/05/31 12:46:21;;;;;;;16.20;4.47;;;27.00;69.10;;;;;;5048895;28;20200;-72
2021/05/31 12:48:51;;;;;;;9.77;4.13;;;27.00;70.80;;;;;;5054177;28;20211;-72
2021/05/31 12:51:17;;;;;;;9.55;4.40;;;26.80;71.00;;;;;;5054264;28;20192;-73
2021/05/31 12:53:47;;;;;;;12.02;4.00;;;26.70;71.10;;;;;;5060016;28;20493;-73
2021/05/31 12:56:13;;;;;;;6.95;3.83;;;27.00;69.50;;;;;;5058679;28;20287;-72
2021/05/31 12:58:39;;;;;;;8.35;4.50;;;27.30;71.20;;;;;;5054683;28;20242;-72
2021/05/31 13:01:05;;;;;;;5.65;4.13;;;27.60;68.10;;;;;;5059082;28;20200;-73
2021/05/31 13:03:34;;;;;;;7.65;3.90;;;27.80;70.30;;;;;;5075929;28;20711;-72
2021/05/31 13:06:00;;;;;;;10.70;3.90;;;27.70;69.10;;;;;;5080801;28;20282;-72
2021/05/31 13:08:36;;;;;;;8.30;4.45;;;27.90;70.80;;;;;;5078315;28;20607;-72
2021/05/31 13:11:02;;;;;;;11.05;4.15;;;28.00;67.20;;;;;;5077409;28;20195;-73
2021/05/31 13:13:38;;;;;;;7.55;4.43;;;28.20;68.10;;;;;;5074670;28;20210;-72